createdAt,value
2023-02-27T00:02:58.773Z,5.20
2023-02-27T00:06:01.012Z,5.82
2023-02-27T00:09:04.156Z,3.92
2023-02-27T00:12:07.199Z,4.95
2023-02-27T00:15:10.943Z,4.13
2023-02-27T00:18:13.148Z,4.38
2023-02-27T00:21:15.530Z,4.97
2023-02-27T00:24:17.610Z,3.70
2023-02-27T00:27:19.803Z,3.97
2023-02-27T00:30:22.042Z,5.63
2023-02-27T00:33:24.203Z,5.72
2023-02-27T00:36:26.524Z,5.30
2023-02-27T00:39:28.700Z,4.35
2023-02-27T00:42:32.009Z,4.65
2023-02-27T00:45:34.177Z,3.65
2023-02-27T00:48:36.589Z,3.80
2023-02-27T00:51:38.716Z,4.80
2023-02-27T00:54:40.889Z,4.53
2023-02-27T00:57:43.127Z,5.38
2023-02-27T01:00:45.415Z,4.00
2023-02-27T01:03:47.622Z,4.43
2023-02-27T01:06:49.869Z,5.88
2023-02-27T01:09:52.032Z,4.07
2023-02-27T01:12:54.404Z,4.30
2023-02-27T01:15:56.543Z,4.15
2023-02-27T01:18:58.702Z,3.70
2023-02-27T01:22:00.996Z,4.33
2023-02-27T01:25:03.566Z,5.63
2023-02-27T01:28:05.835Z,4.57
2023-02-27T01:31:09.288Z,6.40
2023-02-27T01:34:11.505Z,4.97
2023-02-27T01:37:15.986Z,4.82
2023-02-27T01:40:18.647Z,4.72
2023-02-27T01:43:22.558Z,4.57
2023-02-27T01:46:29.010Z,4.70
2023-02-27T01:49:33.524Z,5.07
2023-02-27T01:52:37.231Z,4.50
2023-02-27T01:55:39.572Z,4.43
2023-02-27T01:58:42.845Z,5.15
2023-02-27T02:01:45.306Z,4.53
2023-02-27T02:04:48.323Z,4.10
2023-02-27T02:07:50.600Z,4.35
2023-02-27T02:10:53.676Z,4.53
2023-02-27T02:13:58.659Z,5.65
2023-02-27T02:17:26.851Z,4.70
2023-02-27T02:21:03.956Z,3.60
2023-02-27T02:24:37.091Z,5.53
2023-02-27T02:28:07.122Z,5.70
2023-02-27T02:31:18.008Z,4.35
2023-02-27T02:35:00.523Z,4.47
2023-02-27T02:38:34.840Z,2.85
2023-02-27T02:41:42.644Z,3.85
2023-02-27T02:45:10.294Z,3.75
2023-02-27T02:48:20.511Z,3.50
2023-02-27T02:51:34.670Z,4.95
2023-02-27T02:54:41.017Z,4.10
2023-02-27T02:57:48.459Z,3.70
2023-02-27T03:01:17.945Z,4.78
2023-02-27T03:04:30.871Z,4.65
2023-02-27T03:07:40.200Z,5.83
2023-02-27T03:10:42.418Z,4.05
2023-02-27T03:13:55.468Z,3.67
2023-02-27T03:17:02.136Z,3.38
2023-02-27T03:20:07.399Z,4.43
2023-02-27T03:23:14.232Z,4.07
2023-02-27T03:26:20.371Z,6.38
2023-02-27T03:29:30.231Z,3.73
2023-02-27T03:32:49.339Z,3.65
2023-02-27T03:35:59.815Z,3.60
2023-02-27T03:39:26.888Z,3.87
2023-02-27T03:42:33.819Z,3.53
2023-02-27T03:46:11.709Z,5.45
2023-02-27T03:49:15.356Z,4.30
2023-02-27T03:52:19.715Z,4.13
2023-02-27T03:55:36.167Z,3.33
2023-02-27T03:58:38.588Z,5.38
2023-02-27T04:01:41.503Z,3.47
2023-02-27T04:04:43.773Z,3.58
2023-02-27T04:07:56.989Z,3.70
2023-02-27T04:11:14.316Z,4.03
2023-02-27T04:14:46.342Z,3.60
2023-02-27T04:18:07.227Z,2.88
2023-02-27T04:21:22.725Z,3.67
2023-02-27T04:24:46.212Z,4.47
2023-02-27T04:28:10.129Z,4.55
2023-02-27T04:31:54.932Z,4.72
2023-02-27T04:35:00.176Z,4.40
2023-02-27T04:38:21.188Z,3.67
2023-02-27T04:41:25.982Z,3.58
2023-02-27T04:44:30.758Z,4.20
2023-02-27T04:47:38.038Z,4.30
2023-02-27T04:50:56.236Z,3.45
2023-02-27T04:54:08.440Z,4.55
2023-02-27T04:57:16.238Z,5.90
2023-02-27T05:00:20.699Z,3.67
2023-02-27T05:03:26.529Z,4.97
2023-02-27T05:06:32.350Z,5.13
2023-02-27T05:09:44.004Z,4.00
2023-02-27T05:12:51.716Z,3.13
2023-02-27T05:15:57.795Z,4.37
2023-02-27T05:19:01.081Z,4.85
2023-02-27T05:22:23.620Z,4.50
2023-02-27T05:25:31.842Z,2.95
2023-02-27T05:28:37.969Z,3.97
2023-02-27T05:32:01.380Z,6.32
2023-02-27T05:35:16.916Z,4.63
2023-02-27T05:38:37.283Z,4.87
2023-02-27T05:41:43.849Z,5.28
2023-02-27T05:44:50.882Z,4.43
2023-02-27T05:47:58.140Z,5.80
2023-02-27T05:51:00.367Z,3.80
2023-02-27T05:54:50.566Z,4.15
2023-02-27T05:58:06.856Z,5.20
2023-02-27T06:01:11.050Z,4.72
2023-02-27T06:04:13.285Z,4.63
2023-02-27T06:07:15.877Z,5.53
2023-02-27T06:10:19.470Z,5.73
2023-02-27T06:13:22.282Z,8.25
2023-02-27T06:16:24.543Z,6.65
2023-02-27T06:19:26.758Z,3.97
2023-02-27T06:22:28.915Z,3.60
2023-02-27T06:25:31.380Z,4.43
2023-02-27T06:28:33.594Z,6.60
2023-02-27T06:31:35.791Z,3.83
2023-02-27T06:34:37.968Z,4.07
2023-02-27T06:37:40.196Z,5.45
2023-02-27T06:40:42.580Z,5.10
2023-02-27T06:43:44.744Z,4.22
2023-02-27T06:46:46.884Z,5.57
2023-02-27T06:49:49.170Z,4.27
2023-02-27T06:52:51.270Z,3.72
2023-02-27T06:55:53.626Z,4.22
2023-02-27T06:58:56.542Z,3.03
2023-02-27T07:02:01.109Z,3.50
2023-02-27T07:05:06.063Z,3.70
2023-02-27T07:08:11.086Z,4.88
2023-02-27T07:11:13.586Z,6.57
2023-02-27T07:14:17.278Z,3.17
2023-02-27T07:17:19.473Z,4.13
2023-02-27T07:20:21.664Z,5.60
2023-02-27T07:23:24.144Z,3.95
2023-02-27T07:26:26.641Z,3.83
2023-02-27T07:29:30.207Z,5.32
2023-02-27T07:32:32.386Z,3.95
2023-02-27T07:35:34.537Z,3.58
2023-02-27T07:38:36.652Z,3.47
2023-02-27T07:41:38.897Z,5.97
2023-02-27T07:44:42.584Z,5.95
2023-02-27T07:47:45.740Z,3.30
2023-02-27T07:50:47.967Z,3.93
2023-02-27T07:53:50.142Z,4.55
2023-02-27T07:56:54.170Z,3.45
2023-02-27T07:59:56.331Z,7.60
2023-02-27T08:02:58.599Z,3.75
2023-02-27T08:06:02.444Z,5.50
2023-02-27T08:09:09.093Z,5.05
2023-02-27T08:12:11.262Z,3.80
2023-02-27T08:15:15.594Z,4.10
2023-02-27T08:18:17.744Z,3.97
2023-02-27T08:21:19.967Z,4.53
2023-02-27T08:24:22.187Z,3.17
2023-02-27T08:27:25.667Z,3.50
2023-02-27T08:30:29.234Z,4.80
2023-02-27T08:33:31.876Z,4.32
2023-02-27T08:36:34.276Z,2.70
2023-02-27T08:39:36.422Z,5.18
2023-02-27T08:42:42.171Z,3.17
2023-02-27T08:45:44.434Z,4.88
2023-02-27T08:48:47.092Z,3.53
2023-02-27T08:51:49.430Z,5.20
2023-02-27T08:54:51.876Z,5.57
2023-02-27T08:57:54.112Z,4.10
2023-02-27T09:00:56.395Z,6.30
2023-02-27T09:04:00.860Z,3.60
2023-02-27T09:07:06.090Z,5.18
2023-02-27T09:10:09.004Z,3.35
2023-02-27T09:13:16.577Z,4.50
2023-02-27T09:16:21.088Z,3.35
2023-02-27T09:19:27.209Z,4.13
2023-02-27T09:22:30.021Z,4.60
2023-02-27T09:25:32.925Z,5.93
2023-02-27T09:28:52.943Z,3.95
2023-02-27T09:31:58.804Z,4.88
2023-02-27T09:35:10.997Z,5.65
2023-02-27T09:38:18.704Z,3.17
2023-02-27T09:41:37.975Z,3.95
2023-02-27T09:45:05.985Z,3.50
2023-02-27T09:48:30.318Z,2.78
2023-02-27T09:51:32.573Z,4.10
2023-02-27T09:54:36.091Z,4.30
2023-02-27T09:57:47.835Z,3.25
2023-02-27T10:01:20.486Z,4.78
2023-02-27T10:04:31.810Z,3.50
2023-02-27T10:07:45.263Z,3.50
2023-02-27T10:11:02.357Z,3.85
2023-02-27T10:14:10.848Z,3.50
2023-02-27T10:17:31.743Z,2.83
2023-02-27T10:20:42.854Z,4.38
2023-02-27T10:23:53.432Z,5.30
2023-02-27T10:26:59.300Z,3.47
2023-02-27T10:30:23.555Z,4.85
2023-02-27T10:33:36.104Z,5.13
2023-02-27T10:36:47.158Z,3.50
2023-02-27T10:40:03.196Z,3.38
2023-02-27T10:43:06.428Z,4.35
2023-02-27T10:46:33.151Z,4.85
2023-02-27T10:49:35.877Z,6.67
2023-02-27T10:52:52.234Z,5.18
2023-02-27T10:56:03.966Z,3.15
2023-02-27T10:59:18.622Z,4.93
2023-02-27T11:02:49.000Z,4.88
2023-02-27T11:06:06.788Z,5.60
2023-02-27T11:09:21.944Z,4.75
2023-02-27T11:12:28.247Z,4.32
2023-02-27T11:15:35.805Z,4.47
2023-02-27T11:18:48.296Z,4.45
2023-02-27T11:22:07.337Z,5.30
2023-02-27T11:25:18.587Z,4.90
2023-02-27T11:28:23.682Z,3.95
2023-02-27T11:31:26.679Z,5.20
2023-02-27T11:34:31.279Z,3.65
2023-02-27T11:37:35.708Z,6.70
2023-02-27T11:40:40.874Z,3.60
2023-02-27T11:43:51.369Z,5.07
2023-02-27T11:47:08.545Z,4.57
2023-02-27T11:50:58.014Z,5.72
2023-02-27T11:54:09.598Z,4.23
2023-02-27T11:57:24.192Z,4.50
2023-02-27T12:00:52.249Z,4.50
2023-02-27T12:04:26.939Z,5.23
2023-02-27T12:08:00.408Z,3.80
2023-02-27T12:11:36.601Z,5.50
2023-02-27T12:14:58.295Z,4.80
2023-02-27T12:18:11.424Z,5.55
2023-02-27T12:21:36.932Z,5.05
2023-02-27T12:24:56.152Z,3.70
2023-02-27T12:28:09.297Z,5.53
2023-02-27T12:31:38.280Z,3.50
2023-02-27T12:34:48.721Z,4.80
2023-02-27T12:37:52.136Z,5.83
2023-02-27T12:41:03.737Z,4.50
2023-02-27T12:44:25.748Z,5.47
2023-02-27T12:47:49.409Z,3.70
2023-02-27T12:51:13.703Z,6.30
2023-02-27T12:54:46.539Z,4.00
2023-02-27T12:58:18.825Z,7.20
2023-02-27T13:01:43.306Z,4.23
2023-02-27T13:05:27.277Z,4.32
2023-02-27T13:09:08.532Z,5.05
2023-02-27T13:12:25.355Z,4.77
2023-02-27T13:15:51.033Z,4.85
2023-02-27T13:19:06.808Z,4.50
2023-02-27T13:22:29.036Z,6.68
2023-02-27T13:25:32.622Z,6.57
2023-02-27T13:28:35.038Z,7.47
2023-02-27T13:31:48.116Z,5.13
2023-02-27T13:34:54.484Z,4.87
2023-02-27T13:38:01.666Z,6.47
2023-02-27T13:41:24.064Z,6.75
2023-02-27T13:44:39.409Z,5.13
2023-02-27T13:47:49.733Z,4.82
2023-02-27T13:50:54.020Z,5.50
2023-02-27T13:54:09.019Z,6.90
2023-02-27T13:57:28.389Z,7.20
2023-02-27T14:00:32.895Z,6.10
2023-02-27T14:03:35.231Z,5.22
2023-02-27T14:06:44.234Z,4.63
2023-02-27T14:09:48.125Z,6.40
2023-02-27T14:12:50.501Z,5.63
2023-02-27T14:15:56.164Z,5.03
2023-02-27T14:19:00.444Z,7.38
2023-02-27T14:22:10.889Z,6.00
2023-02-27T14:25:17.725Z,6.32
2023-02-27T14:28:31.800Z,4.88
2023-02-27T14:31:35.592Z,6.40
2023-02-27T14:34:40.378Z,6.13
2023-02-27T14:37:42.828Z,7.17
2023-02-27T14:41:00.843Z,4.35
2023-02-27T14:44:03.158Z,5.18
2023-02-27T14:47:06.080Z,5.07
2023-02-27T14:50:24.205Z,6.20
2023-02-27T14:53:27.261Z,4.53
2023-02-27T14:56:30.015Z,4.10
2023-02-27T14:59:34.076Z,5.55
2023-02-27T15:02:37.583Z,5.50
2023-02-27T15:05:40.187Z,5.22
2023-02-27T15:08:43.018Z,6.27
2023-02-27T15:11:57.458Z,4.13
2023-02-27T15:15:10.100Z,6.13
2023-02-27T15:18:14.213Z,5.73
2023-02-27T15:21:17.583Z,5.70
2023-02-27T15:24:40.587Z,5.72
2023-02-27T15:27:51.272Z,4.82
2023-02-27T15:30:55.134Z,5.05
2023-02-27T15:34:00.899Z,6.03
2023-02-27T15:37:06.012Z,5.82
2023-02-27T15:40:12.190Z,5.20
2023-02-27T15:43:14.449Z,9.00
2023-02-27T15:46:17.472Z,6.50
2023-02-27T15:49:22.024Z,5.90
2023-02-27T15:52:25.841Z,6.55
2023-02-27T15:55:31.528Z,7.03
2023-02-27T15:58:36.439Z,6.00
2023-02-27T16:01:39.446Z,7.38
2023-02-27T16:04:45.573Z,6.05
2023-02-27T16:07:48.712Z,11.57
2023-02-27T16:10:51.524Z,8.03
2023-02-27T16:13:54.628Z,5.45
2023-02-27T16:16:56.830Z,8.15
2023-02-27T16:20:02.267Z,7.33
2023-02-27T16:23:21.339Z,9.52
2023-02-27T16:26:32.564Z,5.93
2023-02-27T16:29:36.498Z,8.82
2023-02-27T16:32:45.187Z,5.90
2023-02-27T16:35:47.672Z,8.23
2023-02-27T16:38:50.106Z,9.02
2023-02-27T16:41:56.776Z,10.43
2023-02-27T16:44:58.993Z,7.55
2023-02-27T16:48:01.398Z,7.00
2023-02-27T16:51:04.420Z,5.40
2023-02-27T16:54:06.604Z,6.95
2023-02-27T16:57:09.750Z,7.90
2023-02-27T17:00:14.032Z,7.20
2023-02-27T17:03:16.205Z,6.47
2023-02-27T17:06:18.335Z,6.50
2023-02-27T17:09:20.636Z,11.10
2023-02-27T17:12:22.868Z,6.70
2023-02-27T17:15:27.622Z,6.75
2023-02-27T17:18:30.205Z,10.00
2023-02-27T17:21:34.131Z,9.80
2023-02-27T17:24:37.352Z,10.57
2023-02-27T17:27:39.759Z,8.52
2023-02-27T17:30:41.902Z,12.02
2023-02-27T17:33:44.791Z,8.25
2023-02-27T17:36:48.708Z,10.88
2023-02-27T17:39:50.960Z,9.77
2023-02-27T17:42:53.145Z,7.67
2023-02-27T17:45:55.671Z,11.38
2023-02-27T17:49:01.272Z,11.20
2023-02-27T17:52:03.524Z,12.93
2023-02-27T17:55:12.475Z,13.15
2023-02-27T17:58:16.852Z,10.35
2023-02-27T18:01:22.942Z,12.70
2023-02-27T18:04:25.573Z,17.10
2023-02-27T18:07:27.736Z,17.30
2023-02-27T18:10:29.865Z,20.02
2023-02-27T18:13:32.053Z,14.47
2023-02-27T18:16:35.021Z,15.20
2023-02-27T18:19:39.541Z,15.77
2023-02-27T18:22:44.632Z,18.00
2023-02-27T18:25:53.893Z,15.25
2023-02-27T18:29:00.041Z,13.23
2023-02-27T18:32:02.397Z,11.63
2023-02-27T18:35:04.866Z,14.25
2023-02-27T18:38:07.057Z,13.98
2023-02-27T18:41:09.487Z,12.07
2023-02-27T18:44:11.637Z,11.87
2023-02-27T18:47:13.788Z,9.45
2023-02-27T18:50:16.632Z,12.18
2023-02-27T18:53:18.776Z,9.63
2023-02-27T18:56:23.797Z,9.05
2023-02-27T18:59:26.408Z,8.55
2023-02-27T19:02:28.921Z,10.48
2023-02-27T19:05:31.053Z,9.88
2023-02-27T19:08:33.189Z,10.88
2023-02-27T19:11:35.935Z,9.98
2023-02-27T19:14:38.577Z,8.67
2023-02-27T19:17:40.808Z,8.55
2023-02-27T19:20:42.999Z,8.52
2023-02-27T19:23:45.379Z,7.87
2023-02-27T19:26:47.724Z,7.57
2023-02-27T19:29:50.144Z,8.00
2023-02-27T19:32:53.084Z,8.30
2023-02-27T19:35:55.278Z,8.73
2023-02-27T19:38:57.676Z,7.95
2023-02-27T19:41:59.968Z,6.47
2023-02-27T19:45:02.392Z,8.57
2023-02-27T19:48:04.768Z,7.18
2023-02-27T19:51:11.689Z,8.25
2023-02-27T19:54:15.645Z,7.80
2023-02-27T19:57:19.170Z,6.82
2023-02-27T20:00:22.707Z,9.00
2023-02-27T20:03:24.823Z,7.38
2023-02-27T20:06:29.406Z,7.28
2023-02-27T20:09:33.331Z,7.20
2023-02-27T20:12:35.497Z,8.20
2023-02-27T20:15:37.688Z,7.10
2023-02-27T20:18:41.733Z,7.18
2023-02-27T20:21:44.417Z,8.18
2023-02-27T20:24:46.584Z,9.73
2023-02-27T20:27:48.776Z,8.13
2023-02-27T20:30:51.010Z,7.85
2023-02-27T20:33:53.241Z,6.97
2023-02-27T20:36:56.031Z,7.78
2023-02-27T20:39:58.222Z,6.90
2023-02-27T20:43:00.559Z,7.55
2023-02-27T20:46:07.403Z,7.03
2023-02-27T20:49:12.052Z,8.05
2023-02-27T20:52:14.156Z,6.65
2023-02-27T20:55:16.336Z,7.23
2023-02-27T20:58:18.452Z,8.00
2023-02-27T21:01:21.457Z,9.07
2023-02-27T21:04:43.160Z,8.30
2023-02-27T21:07:46.737Z,8.55
2023-02-27T21:10:51.482Z,8.13
2023-02-27T21:13:58.428Z,7.75
2023-02-27T21:17:01.005Z,7.47
2023-02-27T21:20:06.755Z,12.60
2023-02-27T21:24:05.294Z,9.60
2023-02-27T21:27:07.592Z,8.23
2023-02-27T21:30:12.401Z,8.85
2023-02-27T21:33:14.536Z,8.23
2023-02-27T21:36:17.115Z,8.10
2023-02-27T21:39:25.830Z,6.15
2023-02-27T21:42:27.984Z,7.57
2023-02-27T21:45:31.515Z,9.85
2023-02-27T21:48:33.781Z,8.47
2023-02-27T21:51:41.030Z,9.38
2023-02-27T21:54:43.399Z,8.68
2023-02-27T21:57:45.565Z,7.77
2023-02-27T22:00:47.669Z,7.90
2023-02-27T22:03:51.745Z,9.75
2023-02-27T22:06:53.941Z,8.60
2023-02-27T22:09:56.116Z,9.95
2023-02-27T22:12:58.268Z,10.38
2023-02-27T22:16:08.917Z,11.38
2023-02-27T22:19:13.842Z,12.47
2023-02-27T22:22:16.045Z,7.60
2023-02-27T22:25:18.812Z,7.57
2023-02-27T22:28:20.966Z,8.80
2023-02-27T22:31:25.161Z,10.38
2023-02-27T22:34:27.346Z,8.48
2023-02-27T22:37:29.511Z,8.73
2023-02-27T22:40:33.739Z,8.02
2023-02-27T22:43:38.243Z,8.65
2023-02-27T22:46:43.354Z,8.45
2023-02-27T22:49:45.543Z,9.50
2023-02-27T22:52:47.662Z,12.77
2023-02-27T22:55:54.685Z,11.02
2023-02-27T22:58:57.098Z,11.10
2023-02-27T23:01:59.376Z,10.43
2023-02-27T23:05:01.636Z,10.93
2023-02-27T23:08:03.788Z,11.68
2023-02-27T23:11:06.421Z,12.52
2023-02-27T23:14:09.109Z,12.27
2023-02-27T23:17:11.278Z,12.88
2023-02-27T23:20:16.004Z,11.50
2023-02-27T23:23:18.166Z,10.43
2023-02-27T23:26:20.560Z,12.40
2023-02-27T23:29:22.734Z,10.53
2023-02-27T23:32:24.903Z,13.45
2023-02-27T23:35:28.046Z,10.02
2023-02-27T23:38:30.634Z,11.20
2023-02-27T23:41:33.159Z,12.55
2023-02-27T23:44:53.922Z,10.75
2023-02-27T23:47:57.342Z,12.55
2023-02-27T23:51:02.932Z,10.87
2023-02-27T23:54:05.173Z,11.63
2023-02-27T23:57:07.330Z,10.77
